sensor_id;sensor_type;location;lat;lon;timestamp;temperature;humidity
18773;DHT22;9515;50.810;4.418;2023-02-28T00:00:33;4.90;99.90
18773;DHT22;9515;50.810;4.418;2023-02-28T00:02:59;4.90;99.90
18773;DHT22;9515;50.810;4.418;2023-02-28T00:05:27;4.80;99.90
18773;DHT22;9515;50.810;4.418;2023-02-28T00:07:53;4.90;99.90
18773;DHT22;9515;50.810;4.418;2023-02-28T00:10:21;4.90;99.90
18773;DHT22;9515;50.810;4.418;2023-02-28T00:12:49;4.90;99.90
18773;DHT22;9515;50.810;4.418;2023-02-28T00:15:15;4.90;99.90
18773;DHT22;9515;50.810;4.418;2023-02-28T00:17:41;4.80;99.90
18773;DHT22;9515;50.810;4.418;2023-02-28T00:20:07;4.80;99.90
18773;DHT22;9515;50.810;4.418;2023-02-28T00:22:34;4.80;99.90
18773;DHT22;9515;50.810;4.418;2023-02-28T00:24:59;4.70;99.90
18773;DHT22;9515;50.810;4.418;2023-02-28T00:27:25;4.70;99.90
18773;DHT22;9515;50.810;4.418;2023-02-28T00:29:51;4.70;99.90
18773;DHT22;9515;50.810;4.418;2023-02-28T00:32:16;4.70;99.90
18773;DHT22;9515;50.810;4.418;2023-02-28T00:34:44;4.60;99.90
18773;DHT22;9515;50.810;4.418;2023-02-28T00:37:10;4.50;99.90
18773;DHT22;9515;50.810;4.418;2023-02-28T00:39:39;4.40;99.90
18773;DHT22;9515;50.810;4.418;2023-02-28T00:42:05;4.40;99.90
18773;DHT22;9515;50.810;4.418;2023-02-28T00:44:31;4.30;99.90
18773;DHT22;9515;50.810;4.418;2023-02-28T00:46:58;4.30;99.90
18773;DHT22;9515;50.810;4.418;2023-02-28T00:49:25;4.40;99.90
18773;DHT22;9515;50.810;4.418;2023-02-28T00:51:52;4.40;99.90
18773;DHT22;9515;50.810;4.418;2023-02-28T00:54:19;4.20;99.90
18773;DHT22;9515;50.810;4.418;2023-02-28T00:56:44;4.20;99.90
18773;DHT22;9515;50.810;4.418;2023-02-28T00:59:12;4.50;99.90
18773;DHT22;9515;50.810;4.418;2023-02-28T01:01:38;4.60;99.90
18773;DHT22;9515;50.810;4.418;2023-02-28T01:04:04;4.50;99.90
18773;DHT22;9515;50.810;4.418;2023-02-28T01:06:30;4.40;99.90
18773;DHT22;9515;50.810;4.418;2023-02-28T01:08:57;4.30;99.90
18773;DHT22;9515;50.810;4.418;2023-02-28T01:11:23;4.30;99.90
18773;DHT22;9515;50.810;4.418;2023-02-28T01:13:48;4.30;99.90
18773;DHT22;9515;50.810;4.418;2023-02-28T01:16:14;4.30;99.90
18773;DHT22;9515;50.810;4.418;2023-02-28T01:18:40;4.30;99.90
18773;DHT22;9515;50.810;4.418;2023-02-28T01:21:07;4.30;99.90
18773;DHT22;9515;50.810;4.418;2023-02-28T01:23:34;4.30;99.90
18773;DHT22;9515;50.810;4.418;2023-02-28T01:26:24;4.40;99.90
18773;DHT22;9515;50.810;4.418;2023-02-28T01:28:51;4.30;99.90
18773;DHT22;9515;50.810;4.418;2023-02-28T01:31:18;4.30;99.90
18773;DHT22;9515;50.810;4.418;2023-02-28T01:33:43;4.30;99.90
18773;DHT22;9515;50.810;4.418;2023-02-28T01:36:21;4.30;99.90
18773;DHT22;9515;50.810;4.418;2023-02-28T01:38:47;4.20;99.90
18773;DHT22;9515;50.810;4.418;2023-02-28T01:41:19;4.30;99.90
18773;DHT22;9515;50.810;4.418;2023-02-28T01:46:12;4.30;99.90
18773;DHT22;9515;50.810;4.418;2023-02-28T01:48:48;4.10;99.90
18773;DHT22;9515;50.810;4.418;2023-02-28T01:51:20;4.10;99.90
18773;DHT22;9515;50.810;4.418;2023-02-28T01:53:55;4.20;99.90
18773;DHT22;9515;50.810;4.418;2023-02-28T01:56:25;4.20;99.90
18773;DHT22;9515;50.810;4.418;2023-02-28T01:58:53;4.30;99.90
18773;DHT22;9515;50.810;4.418;2023-02-28T02:01:21;4.10;99.90
18773;DHT22;9515;50.810;4.418;2023-02-28T02:03:53;4.10;99.90
18773;DHT22;9515;50.810;4.418;2023-02-28T02:06:43;4.00;99.90
18773;DHT22;9515;50.810;4.418;2023-02-28T02:09:11;3.90;99.90
18773;DHT22;9515;50.810;4.418;2023-02-28T02:11:37;3.80;99.90
18773;DHT22;9515;50.810;4.418;2023-02-28T02:14:36;3.90;99.90
18773;DHT22;9515;50.810;4.418;2023-02-28T02:17:22;3.90;99.90
18773;DHT22;9515;50.810;4.418;2023-02-28T02:28:08;4.10;99.90
18773;DHT22;9515;50.810;4.418;2023-02-28T02:31:41;3.90;99.90
18773;DHT22;9515;50.810;4.418;2023-02-28T02:34:26;4.00;99.90
18773;DHT22;9515;50.810;4.418;2023-02-28T02:37:09;3.90;99.90
18773;DHT22;9515;50.810;4.418;2023-02-28T02:39:58;3.90;99.90
18773;DHT22;9515;50.810;4.418;2023-02-28T02:45:46;3.90;99.90
18773;DHT22;9515;50.810;4.418;2023-02-28T02:48:17;3.80;99.90
18773;DHT22;9515;50.810;4.418;2023-02-28T02:50:49;3.80;99.90
18773;DHT22;9515;50.810;4.418;2023-02-28T02:53:18;3.80;99.90
18773;DHT22;9515;50.810;4.418;2023-02-28T02:55:49;3.80;99.90
18773;DHT22;9515;50.810;4.418;2023-02-28T02:58:22;3.80;99.90
18773;DHT22;9515;50.810;4.418;2023-02-28T03:00:55;3.80;99.90
18773;DHT22;9515;50.810;4.418;2023-02-28T03:03:23;3.80;99.90
18773;DHT22;9515;50.810;4.418;2023-02-28T03:06:04;3.90;99.90
18773;DHT22;9515;50.810;4.418;2023-02-28T03:08:34;3.80;99.90
18773;DHT22;9515;50.810;4.418;2023-02-28T03:11:04;3.80;99.90
18773;DHT22;9515;50.810;4.418;2023-02-28T03:27:52;3.60;99.90
18773;DHT22;9515;50.810;4.418;2023-02-28T03:30:01;3.50;99.90
18773;DHT22;9515;50.810;4.418;2023-02-28T03:32:42;3.50;99.90
18773;DHT22;9515;50.810;4.418;2023-02-28T03:35:17;3.50;99.90
18773;DHT22;9515;50.810;4.418;2023-02-28T03:37:50;3.60;99.90
18773;DHT22;9515;50.810;4.418;2023-02-28T03:40:21;3.60;99.90
18773;DHT22;9515;50.810;4.418;2023-02-28T03:42:50;3.70;99.90
18773;DHT22;9515;50.810;4.418;2023-02-28T03:45:26;3.70;99.90
18773;DHT22;9515;50.810;4.418;2023-02-28T03:48:01;3.60;99.90
18773;DHT22;9515;50.810;4.418;2023-02-28T03:50:37;3.60;99.90
18773;DHT22;9515;50.810;4.418;2023-02-28T03:53:21;3.60;99.90
18773;DHT22;9515;50.810;4.418;2023-02-28T03:56:19;3.50;99.90
18773;DHT22;9515;50.810;4.418;2023-02-28T03:58:57;3.50;99.90
18773;DHT22;9515;50.810;4.418;2023-02-28T04:01:32;3.50;99.90
18773;DHT22;9515;50.810;4.418;2023-02-28T04:04:00;3.50;99.90
18773;DHT22;9515;50.810;4.418;2023-02-28T04:06:26;3.50;99.90
18773;DHT22;9515;50.810;4.418;2023-02-28T04:08:52;3.30;99.90
18773;DHT22;9515;50.810;4.418;2023-02-28T04:11:20;3.40;99.90
18773;DHT22;9515;50.810;4.418;2023-02-28T04:13:46;3.30;99.90
18773;DHT22;9515;50.810;4.418;2023-02-28T04:16:12;3.30;99.90
18773;DHT22;9515;50.810;4.418;2023-02-28T04:18:41;3.40;99.90
18773;DHT22;9515;50.810;4.418;2023-02-28T04:21:09;3.40;99.90
18773;DHT22;9515;50.810;4.418;2023-02-28T04:23:36;3.40;99.90
18773;DHT22;9515;50.810;4.418;2023-02-28T04:26:01;3.40;99.90
18773;DHT22;9515;50.810;4.418;2023-02-28T04:28:27;3.50;99.90
18773;DHT22;9515;50.810;4.418;2023-02-28T04:30:57;3.30;99.90
18773;DHT22;9515;50.810;4.418;2023-02-28T04:33:23;3.20;99.90
18773;DHT22;9515;50.810;4.418;2023-02-28T04:36:01;3.20;99.90
18773;DHT22;9515;50.810;4.418;2023-02-28T04:38:29;3.30;99.90
18773;DHT22;9515;50.810;4.418;2023-02-28T04:40:57;3.30;99.90
18773;DHT22;9515;50.810;4.418;2023-02-28T04:43:23;3.20;99.90
18773;DHT22;9515;50.810;4.418;2023-02-28T04:45:48;3.00;99.90
18773;DHT22;9515;50.810;4.418;2023-02-28T04:48:14;3.10;99.90
18773;DHT22;9515;50.810;4.418;2023-02-28T04:50:40;3.00;99.90
18773;DHT22;9515;50.810;4.418;2023-02-28T04:53:06;3.10;99.90
18773;DHT22;9515;50.810;4.418;2023-02-28T04:55:31;3.10;99.90
18773;DHT22;9515;50.810;4.418;2023-02-28T04:57:57;3.20;99.90
18773;DHT22;9515;50.810;4.418;2023-02-28T05:00:23;3.20;99.90
18773;DHT22;9515;50.810;4.418;2023-02-28T05:02:49;3.10;99.90
18773;DHT22;9515;50.810;4.418;2023-02-28T05:05:15;3.10;99.90
18773;DHT22;9515;50.810;4.418;2023-02-28T05:07:44;3.10;99.90
18773;DHT22;9515;50.810;4.418;2023-02-28T05:10:10;3.10;99.90
18773;DHT22;9515;50.810;4.418;2023-02-28T05:12:36;3.20;99.90
18773;DHT22;9515;50.810;4.418;2023-02-28T05:15:02;3.30;99.90
18773;DHT22;9515;50.810;4.418;2023-02-28T05:17:30;3.30;99.90
18773;DHT22;9515;50.810;4.418;2023-02-28T05:19:56;3.20;99.90
18773;DHT22;9515;50.810;4.418;2023-02-28T05:22:21;3.30;99.90
18773;DHT22;9515;50.810;4.418;2023-02-28T05:24:47;3.50;99.90
18773;DHT22;9515;50.810;4.418;2023-02-28T05:27:13;3.50;99.90
18773;DHT22;9515;50.810;4.418;2023-02-28T05:29:38;3.60;99.90
18773;DHT22;9515;50.810;4.418;2023-02-28T05:32:09;3.30;99.90
18773;DHT22;9515;50.810;4.418;2023-02-28T05:34:39;3.40;99.90
18773;DHT22;9515;50.810;4.418;2023-02-28T05:37:06;3.40;99.90
18773;DHT22;9515;50.810;4.418;2023-02-28T05:39:32;3.40;99.90
18773;DHT22;9515;50.810;4.418;2023-02-28T05:41:58;3.30;99.90
18773;DHT22;9515;50.810;4.418;2023-02-28T05:44:23;3.40;99.90
18773;DHT22;9515;50.810;4.418;2023-02-28T05:46:49;3.50;99.90
18773;DHT22;9515;50.810;4.418;2023-02-28T05:49:15;3.60;99.90
18773;DHT22;9515;50.810;4.418;2023-02-28T05:51:41;3.70;99.90
18773;DHT22;9515;50.810;4.418;2023-02-28T05:54:07;3.60;99.90
18773;DHT22;9515;50.810;4.418;2023-02-28T05:56:33;3.70;99.90
18773;DHT22;9515;50.810;4.418;2023-02-28T05:59:00;3.80;99.90
18773;DHT22;9515;50.810;4.418;2023-02-28T06:01:40;3.90;99.90
18773;DHT22;9515;50.810;4.418;2023-02-28T06:04:08;3.80;99.90
18773;DHT22;9515;50.810;4.418;2023-02-28T06:06:34;3.60;99.90
18773;DHT22;9515;50.810;4.418;2023-02-28T06:09:01;3.70;99.90
18773;DHT22;9515;50.810;4.418;2023-02-28T06:11:27;3.80;99.90
18773;DHT22;9515;50.810;4.418;2023-02-28T06:13:56;3.80;99.90
18773;DHT22;9515;50.810;4.418;2023-02-28T06:16:25;3.80;99.90
18773;DHT22;9515;50.810;4.418;2023-02-28T06:18:51;3.90;99.90
18773;DHT22;9515;50.810;4.418;2023-02-28T06:21:18;3.80;99.90
18773;DHT22;9515;50.810;4.418;2023-02-28T06:23:44;4.00;99.90
18773;DHT22;9515;50.810;4.418;2023-02-28T06:26:10;4.00;99.90
18773;DHT22;9515;50.810;4.418;2023-02-28T06:28:36;4.10;99.90
18773;DHT22;9515;50.810;4.418;2023-02-28T06:31:09;4.10;99.90
18773;DHT22;9515;50.810;4.418;2023-02-28T06:33:36;4.10;99.90
18773;DHT22;9515;50.810;4.418;2023-02-28T06:36:03;4.30;99.90
18773;DHT22;9515;50.810;4.418;2023-02-28T06:38:30;4.30;99.90
18773;DHT22;9515;50.810;4.418;2023-02-28T06:40:57;4.20;99.90
18773;DHT22;9515;50.810;4.418;2023-02-28T06:43:23;4.30;99.90
18773;DHT22;9515;50.810;4.418;2023-02-28T06:45:49;4.20;99.90
18773;DHT22;9515;50.810;4.418;2023-02-28T06:48:15;4.20;99.90
18773;DHT22;9515;50.810;4.418;2023-02-28T06:50:40;4.20;99.90
18773;DHT22;9515;50.810;4.418;2023-02-28T06:53:06;4.20;99.90
18773;DHT22;9515;50.810;4.418;2023-02-28T06:55:32;4.20;99.90
18773;DHT22;9515;50.810;4.418;2023-02-28T06:57:58;4.20;99.90
18773;DHT22;9515;50.810;4.418;2023-02-28T07:00:24;4.30;99.90
18773;DHT22;9515;50.810;4.418;2023-02-28T07:02:50;4.50;99.90
18773;DHT22;9515;50.810;4.418;2023-02-28T07:05:16;4.60;99.90
18773;DHT22;9515;50.810;4.418;2023-02-28T07:07:42;4.70;99.90
18773;DHT22;9515;50.810;4.418;2023-02-28T07:10:11;5.00;99.90
18773;DHT22;9515;50.810;4.418;2023-02-28T07:12:37;5.50;99.90
18773;DHT22;9515;50.810;4.418;2023-02-28T07:15:04;5.90;99.90
18773;DHT22;9515;50.810;4.418;2023-02-28T07:17:30;6.50;99.90
18773;DHT22;9515;50.810;4.418;2023-02-28T07:19:56;7.00;99.90
18773;DHT22;9515;50.810;4.418;2023-02-28T07:22:22;7.80;99.90
18773;DHT22;9515;50.810;4.418;2023-02-28T07:24:47;8.20;99.90
18773;DHT22;9515;50.810;4.418;2023-02-28T07:27:13;8.60;99.90
18773;DHT22;9515;50.810;4.418;2023-02-28T07:29:49;8.90;99.90
18773;DHT22;9515;50.810;4.418;2023-02-28T07:32:15;9.10;99.90
18773;DHT22;9515;50.810;4.418;2023-02-28T07:34:40;9.00;99.90
18773;DHT22;9515;50.810;4.418;2023-02-28T07:37:06;9.00;99.90
18773;DHT22;9515;50.810;4.418;2023-02-28T07:39:31;9.30;99.90
18773;DHT22;9515;50.810;4.418;2023-02-28T07:41:57;9.70;99.90
18773;DHT22;9515;50.810;4.418;2023-02-28T07:44:25;9.80;99.90
18773;DHT22;9515;50.810;4.418;2023-02-28T07:46:51;9.80;99.90
18773;DHT22;9515;50.810;4.418;2023-02-28T07:49:18;9.90;99.90
18773;DHT22;9515;50.810;4.418;2023-02-28T07:51:43;10.10;99.90
18773;DHT22;9515;50.810;4.418;2023-02-28T07:54:09;10.10;99.90
18773;DHT22;9515;50.810;4.418;2023-02-28T07:56:35;10.30;99.90
18773;DHT22;9515;50.810;4.418;2023-02-28T07:59:01;10.80;99.90
18773;DHT22;9515;50.810;4.418;2023-02-28T08:01:27;11.00;99.90
18773;DHT22;9515;50.810;4.418;2023-02-28T08:03:52;10.80;99.90
18773;DHT22;9515;50.810;4.418;2023-02-28T08:06:23;10.50;99.90
18773;DHT22;9515;50.810;4.418;2023-02-28T08:08:49;10.70;99.90
18773;DHT22;9515;50.810;4.418;2023-02-28T08:11:16;10.80;99.90
18773;DHT22;9515;50.810;4.418;2023-02-28T08:13:42;10.80;99.90
18773;DHT22;9515;50.810;4.418;2023-02-28T08:16:09;10.50;99.90
18773;DHT22;9515;50.810;4.418;2023-02-28T08:18:35;10.00;99.90
18773;DHT22;9515;50.810;4.418;2023-02-28T08:21:09;9.80;99.90
18773;DHT22;9515;50.810;4.418;2023-02-28T08:23:35;9.40;99.90
18773;DHT22;9515;50.810;4.418;2023-02-28T08:26:02;9.80;99.90
18773;DHT22;9515;50.810;4.418;2023-02-28T08:28:28;9.90;99.90
18773;DHT22;9515;50.810;4.418;2023-02-28T08:30:54;10.20;99.90
18773;DHT22;9515;50.810;4.418;2023-02-28T08:33:20;10.50;99.90
18773;DHT22;9515;50.810;4.418;2023-02-28T08:35:46;10.90;99.90
18773;DHT22;9515;50.810;4.418;2023-02-28T08:38:11;10.90;99.90
18773;DHT22;9515;50.810;4.418;2023-02-28T08:40:37;11.00;99.90
18773;DHT22;9515;50.810;4.418;2023-02-28T08:43:03;10.90;99.90
18773;DHT22;9515;50.810;4.418;2023-02-28T08:45:29;10.70;99.90
18773;DHT22;9515;50.810;4.418;2023-02-28T08:47:55;10.90;99.90
18773;DHT22;9515;50.810;4.418;2023-02-28T08:50:21;11.20;99.90
18773;DHT22;9515;50.810;4.418;2023-02-28T08:52:46;11.30;99.90
18773;DHT22;9515;50.810;4.418;2023-02-28T08:55:12;11.40;99.90
18773;DHT22;9515;50.810;4.418;2023-02-28T08:57:38;11.40;99.90
18773;DHT22;9515;50.810;4.418;2023-02-28T09:00:04;11.60;99.90
18773;DHT22;9515;50.810;4.418;2023-02-28T09:02:30;11.80;99.90
18773;DHT22;9515;50.810;4.418;2023-02-28T09:04:57;12.00;99.90
18773;DHT22;9515;50.810;4.418;2023-02-28T09:07:24;12.50;99.90
18773;DHT22;9515;50.810;4.418;2023-02-28T09:09:49;12.30;99.90
18773;DHT22;9515;50.810;4.418;2023-02-28T09:12:24;12.80;99.90
18773;DHT22;9515;50.810;4.418;2023-02-28T09:14:50;12.80;99.90
18773;DHT22;9515;50.810;4.418;2023-02-28T09:17:16;12.60;99.90
18773;DHT22;9515;50.810;4.418;2023-02-28T09:19:42;12.30;99.90
18773;DHT22;9515;50.810;4.418;2023-02-28T09:22:09;12.40;99.90
18773;DHT22;9515;50.810;4.418;2023-02-28T09:24:36;12.30;99.90
18773;DHT22;9515;50.810;4.418;2023-02-28T09:27:02;12.30;99.90
18773;DHT22;9515;50.810;4.418;2023-02-28T09:29:27;12.00;99.90
18773;DHT22;9515;50.810;4.418;2023-02-28T09:31:54;11.90;99.90
18773;DHT22;9515;50.810;4.418;2023-02-28T09:34:20;12.00;99.90
18773;DHT22;9515;50.810;4.418;2023-02-28T09:36:45;12.30;99.90
18773;DHT22;9515;50.810;4.418;2023-02-28T09:39:12;13.00;99.90
18773;DHT22;9515;50.810;4.418;2023-02-28T09:41:41;13.50;99.90
18773;DHT22;9515;50.810;4.418;2023-02-28T09:44:31;13.70;99.90
18773;DHT22;9515;50.810;4.418;2023-02-28T09:49:47;13.20;99.90
18773;DHT22;9515;50.810;4.418;2023-02-28T09:52:20;13.30;99.90
18773;DHT22;9515;50.810;4.418;2023-02-28T09:54:46;13.30;99.90
18773;DHT22;9515;50.810;4.418;2023-02-28T10:00:03;13.50;99.90
18773;DHT22;9515;50.810;4.418;2023-02-28T10:05:52;14.50;99.90
18773;DHT22;9515;50.810;4.418;2023-02-28T10:08:25;14.40;99.90
18773;DHT22;9515;50.810;4.418;2023-02-28T10:11:01;14.30;99.90
18773;DHT22;9515;50.810;4.418;2023-02-28T10:19:26;13.60;99.90
18773;DHT22;9515;50.810;4.418;2023-02-28T10:22:00;14.10;99.90
18773;DHT22;9515;50.810;4.418;2023-02-28T10:27:24;12.50;99.90
18773;DHT22;9515;50.810;4.418;2023-02-28T10:29:56;12.70;99.90
18773;DHT22;9515;50.810;4.418;2023-02-28T10:32:23;12.50;99.90
18773;DHT22;9515;50.810;4.418;2023-02-28T10:34:57;12.50;99.90
18773;DHT22;9515;50.810;4.418;2023-02-28T10:37:24;12.90;99.90
18773;DHT22;9515;50.810;4.418;2023-02-28T10:39:49;13.60;99.90
18773;DHT22;9515;50.810;4.418;2023-02-28T10:44:47;13.40;99.90
18773;DHT22;9515;50.810;4.418;2023-02-28T10:47:17;13.90;99.90
18773;DHT22;9515;50.810;4.418;2023-02-28T10:49:49;14.50;98.60
18773;DHT22;9515;50.810;4.418;2023-02-28T10:52:36;13.30;99.10
18773;DHT22;9515;50.810;4.418;2023-02-28T10:57:46;13.30;99.90
18773;DHT22;9515;50.810;4.418;2023-02-28T11:00:20;13.50;99.90
18773;DHT22;9515;50.810;4.418;2023-02-28T11:02:47;14.20;99.80
18773;DHT22;9515;50.810;4.418;2023-02-28T11:07:54;17.20;97.30
18773;DHT22;9515;50.810;4.418;2023-02-28T11:10:24;18.30;96.70
18773;DHT22;9515;50.810;4.418;2023-02-28T11:12:54;18.10;95.90
18773;DHT22;9515;50.810;4.418;2023-02-28T11:18:01;18.60;94.50
18773;DHT22;9515;50.810;4.418;2023-02-28T11:20:29;19.30;94.20
18773;DHT22;9515;50.810;4.418;2023-02-28T11:22:57;19.70;92.60
18773;DHT22;9515;50.810;4.418;2023-02-28T11:25:26;18.70;92.00
18773;DHT22;9515;50.810;4.418;2023-02-28T11:27:59;17.70;93.10
18773;DHT22;9515;50.810;4.418;2023-02-28T11:30:36;17.40;92.70
18773;DHT22;9515;50.810;4.418;2023-02-28T11:35:49;15.30;93.80
18773;DHT22;9515;50.810;4.418;2023-02-28T11:38:15;15.00;94.30
18773;DHT22;9515;50.810;4.418;2023-02-28T11:43:30;14.30;94.90
18773;DHT22;9515;50.810;4.418;2023-02-28T11:46:17;13.10;96.40
18773;DHT22;9515;50.810;4.418;2023-02-28T11:49:02;11.70;97.50
18773;DHT22;9515;50.810;4.418;2023-02-28T11:51:49;11.10;98.90
18773;DHT22;9515;50.810;4.418;2023-02-28T11:54:41;11.50;98.50
18773;DHT22;9515;50.810;4.418;2023-02-28T11:57:23;12.30;97.90
18773;DHT22;9515;50.810;4.418;2023-02-28T12:05:09;14.90;95.60
18773;DHT22;9515;50.810;4.418;2023-02-28T12:16:00;18.90;91.60
18773;DHT22;9515;50.810;4.418;2023-02-28T12:24:31;17.20;92.50
18773;DHT22;9515;50.810;4.418;2023-02-28T12:27:07;15.90;92.10
18773;DHT22;9515;50.810;4.418;2023-02-28T12:30:00;17.00;93.00
18773;DHT22;9515;50.810;4.418;2023-02-28T12:32:40;19.00;91.10
18773;DHT22;9515;50.810;4.418;2023-02-28T12:37:41;19.80;90.90
18773;DHT22;9515;50.810;4.418;2023-02-28T12:40:23;20.10;88.60
18773;DHT22;9515;50.810;4.418;2023-02-28T12:42:56;20.00;88.30
18773;DHT22;9515;50.810;4.418;2023-02-28T12:45:25;19.40;88.50
18773;DHT22;9515;50.810;4.418;2023-02-28T12:47:59;17.90;88.90
18773;DHT22;9515;50.810;4.418;2023-02-28T12:50:27;16.00;90.10
18773;DHT22;9515;50.810;4.418;2023-02-28T12:55:56;16.90;91.80
18773;DHT22;9515;50.810;4.418;2023-02-28T12:58:39;18.70;90.00
18773;DHT22;9515;50.810;4.418;2023-02-28T13:01:42;19.20;88.30
18773;DHT22;9515;50.810;4.418;2023-02-28T13:04:43;19.80;87.60
18773;DHT22;9515;50.810;4.418;2023-02-28T13:07:17;19.70;86.10
18773;DHT22;9515;50.810;4.418;2023-02-28T13:09:54;19.10;85.50
18773;DHT22;9515;50.810;4.418;2023-02-28T13:12:20;19.80;87.60
18773;DHT22;9515;50.810;4.418;2023-02-28T13:14:48;21.40;85.50
18773;DHT22;9515;50.810;4.418;2023-02-28T13:17:23;21.10;82.80
18773;DHT22;9515;50.810;4.418;2023-02-28T13:24:53;21.60;81.70
18773;DHT22;9515;50.810;4.418;2023-02-28T13:27:31;21.90;81.40
18773;DHT22;9515;50.810;4.418;2023-02-28T13:29:57;21.40;80.50
18773;DHT22;9515;50.810;4.418;2023-02-28T13:49:55;19.30;82.10
18773;DHT22;9515;50.810;4.418;2023-02-28T13:55:41;19.60;80.50
18773;DHT22;9515;50.810;4.418;2023-02-28T14:01:29;19.60;80.20
18773;DHT22;9515;50.810;4.418;2023-02-28T14:06:49;18.70;81.10
18773;DHT22;9515;50.810;4.418;2023-02-28T14:09:38;18.50;82.20
18773;DHT22;9515;50.810;4.418;2023-02-28T14:17:57;17.90;84.50
18773;DHT22;9515;50.810;4.418;2023-02-28T14:20:27;18.00;84.40
18773;DHT22;9515;50.810;4.418;2023-02-28T14:29:11;18.40;83.00
18773;DHT22;9515;50.810;4.418;2023-02-28T14:31:53;18.00;84.00
18773;DHT22;9515;50.810;4.418;2023-02-28T14:37:23;15.20;86.40
18773;DHT22;9515;50.810;4.418;2023-02-28T14:39:51;14.70;87.30
18773;DHT22;9515;50.810;4.418;2023-02-28T14:42:30;14.90;88.70
18773;DHT22;9515;50.810;4.418;2023-02-28T14:44:57;15.80;86.40
18773;DHT22;9515;50.810;4.418;2023-02-28T14:47:24;16.40;86.50
18773;DHT22;9515;50.810;4.418;2023-02-28T14:49:51;16.70;87.70
18773;DHT22;9515;50.810;4.418;2023-02-28T14:52:21;16.20;85.50
18773;DHT22;9515;50.810;4.418;2023-02-28T14:54:58;16.10;86.90
18773;DHT22;9515;50.810;4.418;2023-02-28T14:57:30;16.50;85.70
18773;DHT22;9515;50.810;4.418;2023-02-28T15:00:09;16.40;85.80
18773;DHT22;9515;50.810;4.418;2023-02-28T15:02:38;15.80;85.70
18773;DHT22;9515;50.810;4.418;2023-02-28T15:05:28;14.80;87.90
18773;DHT22;9515;50.810;4.418;2023-02-28T15:08:15;15.00;89.30
18773;DHT22;9515;50.810;4.418;2023-02-28T15:11:04;15.30;87.30
18773;DHT22;9515;50.810;4.418;2023-02-28T15:16:04;15.50;87.00
18773;DHT22;9515;50.810;4.418;2023-02-28T15:18:46;15.70;88.30
18773;DHT22;9515;50.810;4.418;2023-02-28T15:23:48;16.80;86.20
18773;DHT22;9515;50.810;4.418;2023-02-28T15:26:18;16.40;86.20
18773;DHT22;9515;50.810;4.418;2023-02-28T15:28:45;16.40;86.80
18773;DHT22;9515;50.810;4.418;2023-02-28T15:31:26;15.80;86.90
18773;DHT22;9515;50.810;4.418;2023-02-28T15:33:53;15.10;89.00
18773;DHT22;9515;50.810;4.418;2023-02-28T15:36:20;14.00;90.50
18773;DHT22;9515;50.810;4.418;2023-02-28T15:38:52;12.70;91.40
18773;DHT22;9515;50.810;4.418;2023-02-28T15:41:26;12.00;92.20
18773;DHT22;9515;50.810;4.418;2023-02-28T15:44:17;11.50;92.80
18773;DHT22;9515;50.810;4.418;2023-02-28T15:49:22;10.60;94.40
18773;DHT22;9515;50.810;4.418;2023-02-28T15:51:50;9.90;94.50
18773;DHT22;9515;50.810;4.418;2023-02-28T15:54:28;9.50;95.20
18773;DHT22;9515;50.810;4.418;2023-02-28T15:56:57;9.30;95.50
18773;DHT22;9515;50.810;4.418;2023-02-28T15:59:25;9.30;95.90
18773;DHT22;9515;50.810;4.418;2023-02-28T16:02:17;8.80;95.70
18773;DHT22;9515;50.810;4.418;2023-02-28T16:07:25;8.40;97.00
18773;DHT22;9515;50.810;4.418;2023-02-28T16:09:51;8.40;96.70
18773;DHT22;9515;50.810;4.418;2023-02-28T16:12:18;8.50;97.00
18773;DHT22;9515;50.810;4.418;2023-02-28T16:14:44;8.10;97.10
18773;DHT22;9515;50.810;4.418;2023-02-28T16:17:22;7.70;97.70
18773;DHT22;9515;50.810;4.418;2023-02-28T16:19:48;7.70;97.90
18773;DHT22;9515;50.810;4.418;2023-02-28T16:22:14;7.60;98.40
18773;DHT22;9515;50.810;4.418;2023-02-28T16:24:40;7.90;98.70
18773;DHT22;9515;50.810;4.418;2023-02-28T16:27:06;8.10;98.70
18773;DHT22;9515;50.810;4.418;2023-02-28T16:29:34;8.20;98.70
18773;DHT22;9515;50.810;4.418;2023-02-28T16:32:02;8.10;98.80
18773;DHT22;9515;50.810;4.418;2023-02-28T16:34:29;8.00;99.20
18773;DHT22;9515;50.810;4.418;2023-02-28T16:36:54;8.00;99.00
18773;DHT22;9515;50.810;4.418;2023-02-28T16:39:20;7.90;99.10
18773;DHT22;9515;50.810;4.418;2023-02-28T16:41:47;7.70;99.40
18773;DHT22;9515;50.810;4.418;2023-02-28T16:44:33;7.50;99.40
18773;DHT22;9515;50.810;4.418;2023-02-28T16:47:01;7.60;99.50
18773;DHT22;9515;50.810;4.418;2023-02-28T16:49:27;7.40;99.80
18773;DHT22;9515;50.810;4.418;2023-02-28T16:51:52;7.50;99.90
18773;DHT22;9515;50.810;4.418;2023-02-28T16:54:18;7.50;99.90
18773;DHT22;9515;50.810;4.418;2023-02-28T16:56:46;7.50;99.90
18773;DHT22;9515;50.810;4.418;2023-02-28T16:59:13;7.50;99.90
18773;DHT22;9515;50.810;4.418;2023-02-28T17:01:40;7.50;99.90
18773;DHT22;9515;50.810;4.418;2023-02-28T17:04:06;7.70;99.90
18773;DHT22;9515;50.810;4.418;2023-02-28T17:06:35;7.60;99.90
18773;DHT22;9515;50.810;4.418;2023-02-28T17:09:00;7.40;99.90
18773;DHT22;9515;50.810;4.418;2023-02-28T17:11:32;7.30;99.90
18773;DHT22;9515;50.810;4.418;2023-02-28T17:14:00;7.40;99.90
18773;DHT22;9515;50.810;4.418;2023-02-28T17:16:31;7.40;99.90
18773;DHT22;9515;50.810;4.418;2023-02-28T17:19:00;7.30;99.90
18773;DHT22;9515;50.810;4.418;2023-02-28T17:21:26;7.10;99.90
18773;DHT22;9515;50.810;4.418;2023-02-28T17:23:52;7.10;99.90
18773;DHT22;9515;50.810;4.418;2023-02-28T17:26:19;7.20;99.90
18773;DHT22;9515;50.810;4.418;2023-02-28T17:28:49;7.00;99.90
18773;DHT22;9515;50.810;4.418;2023-02-28T17:31:16;7.00;99.90
18773;DHT22;9515;50.810;4.418;2023-02-28T17:33:42;6.90;99.90
18773;DHT22;9515;50.810;4.418;2023-02-28T17:36:15;6.80;99.90
18773;DHT22;9515;50.810;4.418;2023-02-28T17:38:41;6.90;99.90
18773;DHT22;9515;50.810;4.418;2023-02-28T17:41:10;7.00;99.90
18773;DHT22;9515;50.810;4.418;2023-02-28T17:43:36;7.00;99.90
18773;DHT22;9515;50.810;4.418;2023-02-28T17:46:02;6.90;99.90
18773;DHT22;9515;50.810;4.418;2023-02-28T17:48:30;6.90;99.90
18773;DHT22;9515;50.810;4.418;2023-02-28T17:50:56;7.00;99.90
18773;DHT22;9515;50.810;4.418;2023-02-28T17:53:23;7.20;99.90
18773;DHT22;9515;50.810;4.418;2023-02-28T17:55:52;7.10;99.90
18773;DHT22;9515;50.810;4.418;2023-02-28T17:58:17;6.90;99.90
18773;DHT22;9515;50.810;4.418;2023-02-28T18:00:44;7.10;99.90
18773;DHT22;9515;50.810;4.418;2023-02-28T18:03:10;7.20;99.90
18773;DHT22;9515;50.810;4.418;2023-02-28T18:05:38;7.20;99.90
18773;DHT22;9515;50.810;4.418;2023-02-28T18:08:04;7.10;99.90
18773;DHT22;9515;50.810;4.418;2023-02-28T18:10:29;7.20;99.90
18773;DHT22;9515;50.810;4.418;2023-02-28T18:12:58;7.00;99.90
18773;DHT22;9515;50.810;4.418;2023-02-28T18:15:24;7.10;99.90
18773;DHT22;9515;50.810;4.418;2023-02-28T18:17:50;7.10;99.90
18773;DHT22;9515;50.810;4.418;2023-02-28T18:20:16;7.20;99.90
18773;DHT22;9515;50.810;4.418;2023-02-28T18:22:42;7.10;99.90
18773;DHT22;9515;50.810;4.418;2023-02-28T18:25:09;7.10;99.90
18773;DHT22;9515;50.810;4.418;2023-02-28T18:27:39;6.90;99.90
18773;DHT22;9515;50.810;4.418;2023-02-28T18:30:07;6.90;99.90
18773;DHT22;9515;50.810;4.418;2023-02-28T18:32:36;7.00;99.90
18773;DHT22;9515;50.810;4.418;2023-02-28T18:35:05;7.10;99.90